createdAt,value
2023-10-23T00:00:22.498Z,33.81
2023-10-23T00:01:25.390Z,35.81
2023-10-23T00:02:28.181Z,33.50
2023-10-23T00:05:00.377Z,27.44
2023-10-23T00:06:03.572Z,31.12
2023-10-23T00:07:06.355Z,30.81
2023-10-23T00:08:09.580Z,30.69
2023-10-23T00:09:12.418Z,34.25
2023-10-23T00:10:15.383Z,23.94
2023-10-23T00:11:24.408Z,29.31
2023-10-23T00:12:27.243Z,38.25
2023-10-23T00:13:30.111Z,33.50
2023-10-23T00:14:32.933Z,34.00
2023-10-23T00:15:35.764Z,33.50
2023-10-23T00:16:38.666Z,32.56
2023-10-23T00:17:41.574Z,36.38
2023-10-23T00:18:44.459Z,31.56
2023-10-23T00:19:47.381Z,35.25
2023-10-23T00:20:50.362Z,37.88
2023-10-23T00:21:53.197Z,30.75
2023-10-23T00:22:56.053Z,34.44
2023-10-23T00:23:58.870Z,24.31
2023-10-23T00:25:01.785Z,34.94
2023-10-23T00:26:06.105Z,28.93
2023-10-23T00:27:08.927Z,29.25
2023-10-23T00:28:11.752Z,28.12
2023-10-23T00:29:14.660Z,28.50
2023-10-23T00:30:17.731Z,30.31
2023-10-23T00:31:20.577Z,36.06
2023-10-23T00:32:23.465Z,34.19
2023-10-23T00:33:26.820Z,29.06
2023-10-23T00:34:29.729Z,36.88
2023-10-23T00:35:32.653Z,27.87
2023-10-23T00:36:35.675Z,30.75
2023-10-23T00:37:40.403Z,27.25
2023-10-23T00:38:42.845Z,29.37
2023-10-23T00:39:45.716Z,32.25
2023-10-23T00:40:48.740Z,28.69
2023-10-23T00:41:51.624Z,26.44
2023-10-23T00:42:54.479Z,31.25
2023-10-23T00:43:57.357Z,28.87
2023-10-23T00:45:00.226Z,29.69
2023-10-23T00:46:07.466Z,28.06
2023-10-23T00:47:11.062Z,33.13
2023-10-23T00:48:14.060Z,28.62
2023-10-23T00:49:16.952Z,30.88
2023-10-23T00:50:19.932Z,28.06
2023-10-23T00:51:22.833Z,29.56
2023-10-23T00:52:26.639Z,30.62
2023-10-23T00:53:30.808Z,20.37
2023-10-23T00:54:33.748Z,28.56
2023-10-23T00:55:36.794Z,28.12
2023-10-23T00:56:39.689Z,28.06
2023-10-23T00:57:42.743Z,29.06
2023-10-23T00:58:45.701Z,24.06
2023-10-23T00:59:48.700Z,28.12
2023-10-23T01:00:51.965Z,27.31
2023-10-23T01:01:55.027Z,29.19
2023-10-23T01:02:57.834Z,27.06
2023-10-23T01:04:00.830Z,26.69
2023-10-23T01:05:03.772Z,29.31
2023-10-23T01:06:06.813Z,29.94
2023-10-23T01:07:09.744Z,23.87
2023-10-23T01:08:12.780Z,28.19
2023-10-23T01:09:15.715Z,25.37
2023-10-23T01:10:20.107Z,26.62
2023-10-23T01:11:24.577Z,29.06
2023-10-23T01:12:27.464Z,22.75
2023-10-23T01:13:30.242Z,30.88
2023-10-23T01:14:33.069Z,23.19
2023-10-23T01:15:36.346Z,19.06
2023-10-23T01:16:39.374Z,25.62
2023-10-23T01:17:42.322Z,27.31
2023-10-23T01:18:45.266Z,23.25
2023-10-23T01:19:48.060Z,22.94
2023-10-23T01:20:50.994Z,22.56
2023-10-23T01:21:53.851Z,24.25
2023-10-23T01:22:58.145Z,22.19
2023-10-23T01:24:01.142Z,24.37
2023-10-23T01:25:04.024Z,25.00
2023-10-23T01:26:07.008Z,26.56
2023-10-23T01:27:09.812Z,23.19
2023-10-23T01:28:12.625Z,28.50
2023-10-23T01:29:15.432Z,23.56
2023-10-23T01:30:18.933Z,19.56
2023-10-23T01:31:21.808Z,26.44
2023-10-23T01:32:24.620Z,23.62
2023-10-23T01:33:27.435Z,27.31
2023-10-23T01:34:30.224Z,20.94
2023-10-23T01:35:33.021Z,24.75
2023-10-23T01:36:35.935Z,21.12
2023-10-23T01:37:39.209Z,21.94
2023-10-23T01:38:43.578Z,23.69
2023-10-23T01:39:48.419Z,19.25
2023-10-23T01:40:50.919Z,23.62
2023-10-23T01:41:53.752Z,23.62
2023-10-23T01:42:56.632Z,20.12
2023-10-23T01:43:59.492Z,21.50
2023-10-23T01:45:02.256Z,22.20
2023-10-23T01:46:05.501Z,22.62
2023-10-23T01:47:08.394Z,24.87
2023-10-23T01:48:11.292Z,17.37
2023-10-23T01:49:14.171Z,21.94
2023-10-23T01:50:17.150Z,20.69
2023-10-23T01:51:20.017Z,14.25
2023-10-23T01:52:22.960Z,25.00
2023-10-23T01:53:25.761Z,21.44
2023-10-23T01:54:28.656Z,21.00
2023-10-23T01:55:31.478Z,20.56
2023-10-23T01:56:35.808Z,19.25
2023-10-23T01:57:39.017Z,19.06
2023-10-23T01:58:41.795Z,19.94
2023-10-23T01:59:44.635Z,18.81
2023-10-23T02:00:47.579Z,20.19
2023-10-23T02:01:50.404Z,11.88
2023-10-23T02:02:53.259Z,15.38
2023-10-23T02:03:56.954Z,21.75
2023-10-23T02:05:00.666Z,20.94
2023-10-23T02:06:03.714Z,22.94
2023-10-23T02:07:06.810Z,10.44
2023-10-23T02:08:09.613Z,22.81
2023-10-23T02:09:12.406Z,20.62
2023-10-23T02:10:16.145Z,18.75
2023-10-23T02:11:18.970Z,19.56
2023-10-23T02:12:21.816Z,18.44
2023-10-23T02:13:24.730Z,19.56
2023-10-23T02:14:27.870Z,18.81
2023-10-23T02:15:30.739Z,22.62
2023-10-23T02:16:33.680Z,19.25
2023-10-23T02:17:36.545Z,15.31
2023-10-23T02:18:39.504Z,20.75
2023-10-23T02:19:42.378Z,17.94
2023-10-23T02:20:45.467Z,10.13
2023-10-23T02:21:48.308Z,19.00
2023-10-23T02:22:51.225Z,21.69
2023-10-23T02:23:57.024Z,20.37
2023-10-23T02:24:58.716Z,18.19
2023-10-23T02:26:01.619Z,16.62
2023-10-23T02:27:04.511Z,19.44
2023-10-23T02:28:07.376Z,18.31
2023-10-23T02:29:10.202Z,15.69
2023-10-23T02:30:13.733Z,15.13
2023-10-23T02:31:16.601Z,15.50
2023-10-23T02:32:19.649Z,17.87
2023-10-23T02:33:22.559Z,16.37
2023-10-23T02:34:25.437Z,17.94
2023-10-23T02:35:28.319Z,14.87
2023-10-23T02:36:31.236Z,11.50
2023-10-23T02:37:34.099Z,16.06
2023-10-23T02:38:36.919Z,14.69
2023-10-23T02:39:39.999Z,2.12
2023-10-23T02:40:44.572Z,15.00
2023-10-23T02:41:47.340Z,12.94
2023-10-23T02:42:50.251Z,15.13
2023-10-23T02:43:53.142Z,14.13
2023-10-23T02:44:56.026Z,14.25
2023-10-23T02:46:02.689Z,16.13
2023-10-23T02:47:05.583Z,10.63
2023-10-23T02:48:08.425Z,13.25
2023-10-23T02:49:11.346Z,13.62
2023-10-23T02:50:15.482Z,16.69
2023-10-23T02:51:19.149Z,19.00
2023-10-23T02:52:22.255Z,16.25
2023-10-23T02:53:25.812Z,13.13
2023-10-23T02:54:28.737Z,13.56
2023-10-23T02:55:33.677Z,11.75
2023-10-23T02:56:36.298Z,12.94
2023-10-23T02:57:39.413Z,6.62
2023-10-23T02:58:42.423Z,13.56
2023-10-23T02:59:45.270Z,11.88
2023-10-23T03:00:48.242Z,14.06
2023-10-23T03:01:51.204Z,14.38
2023-10-23T03:02:54.097Z,10.13
2023-10-23T03:03:57.146Z,11.25
2023-10-23T03:05:00.446Z,10.94
2023-10-23T03:06:03.406Z,10.25
2023-10-23T03:07:06.216Z,11.38
2023-10-23T03:08:08.997Z,12.06
2023-10-23T03:09:13.396Z,10.50
2023-10-23T03:10:16.702Z,10.06
2023-10-23T03:11:19.599Z,10.69
2023-10-23T03:12:22.807Z,8.69
2023-10-23T03:13:25.696Z,10.38
2023-10-23T03:14:28.554Z,8.50
2023-10-23T03:15:31.545Z,8.00
2023-10-23T03:16:34.552Z,9.63
2023-10-23T03:17:37.519Z,10.75
2023-10-23T03:18:40.382Z,9.19
2023-10-23T03:19:43.261Z,6.00
2023-10-23T03:20:46.154Z,9.06
2023-10-23T03:21:49.119Z,7.25
2023-10-23T03:22:53.213Z,10.75
2023-10-23T03:23:56.080Z,9.38
2023-10-23T03:24:59.129Z,10.31
2023-10-23T03:26:03.222Z,7.69
2023-10-23T03:27:06.190Z,8.63
2023-10-23T03:28:08.990Z,9.81
2023-10-23T03:29:12.139Z,10.56
2023-10-23T03:30:15.423Z,10.31
2023-10-23T03:31:18.440Z,10.81
2023-10-23T03:32:22.880Z,11.56
2023-10-23T03:33:25.724Z,9.06
2023-10-23T03:34:30.146Z,10.56
2023-10-23T03:35:33.041Z,11.75
2023-10-23T03:36:37.744Z,10.25
2023-10-23T03:37:40.673Z,8.63
2023-10-23T03:38:43.494Z,9.00
2023-10-23T03:39:46.614Z,10.69
2023-10-23T03:40:56.863Z,17.87
2023-10-23T03:42:00.087Z,14.56
2023-10-23T03:43:03.317Z,8.75
2023-10-23T03:44:06.091Z,11.25
2023-10-23T03:45:09.146Z,10.44
2023-10-23T03:46:12.325Z,9.19
2023-10-23T03:47:15.215Z,9.00
2023-10-23T03:48:18.298Z,11.75
2023-10-23T03:49:21.184Z,10.75
2023-10-23T03:50:24.175Z,9.69
2023-10-23T03:51:27.373Z,8.94
2023-10-23T03:52:30.184Z,11.69
2023-10-23T03:53:33.004Z,12.75
2023-10-23T03:54:38.599Z,12.31
2023-10-23T03:55:40.243Z,12.81
2023-10-23T03:56:43.372Z,17.06
2023-10-23T03:57:47.772Z,14.44
2023-10-23T03:58:50.710Z,13.69
2023-10-23T03:59:53.693Z,15.50
2023-10-23T04:00:56.642Z,15.31
2023-10-23T04:01:59.454Z,16.50
2023-10-23T04:03:02.310Z,15.75
2023-10-23T04:04:05.455Z,15.25
2023-10-23T04:05:08.407Z,16.44
2023-10-23T04:06:11.609Z,16.44
2023-10-23T04:07:14.432Z,17.69
2023-10-23T04:08:17.235Z,20.56
2023-10-23T04:09:20.183Z,20.37
2023-10-23T04:10:23.145Z,22.94
2023-10-23T04:11:26.037Z,22.13
2023-10-23T04:12:28.876Z,23.62
2023-10-23T04:13:31.684Z,21.12
2023-10-23T04:14:34.521Z,22.56
2023-10-23T04:15:37.392Z,22.69
2023-10-23T04:16:40.469Z,26.12
2023-10-23T04:17:43.381Z,23.75
2023-10-23T04:18:46.265Z,24.06
2023-10-23T04:19:49.199Z,22.81
2023-10-23T04:20:52.168Z,25.31
2023-10-23T04:21:55.051Z,25.75
2023-10-23T04:22:57.984Z,24.87
2023-10-23T04:24:00.814Z,26.50
2023-10-23T04:25:03.815Z,22.44
2023-10-23T04:26:08.023Z,20.62
2023-10-23T04:27:13.921Z,22.50
2023-10-23T04:28:16.730Z,23.94
2023-10-23T04:29:19.592Z,23.75
2023-10-23T04:30:22.650Z,21.62
2023-10-23T04:31:25.574Z,21.25
2023-10-23T04:32:28.859Z,21.62
2023-10-23T04:33:31.891Z,20.44
2023-10-23T04:34:35.004Z,21.12
2023-10-23T04:35:39.305Z,22.69
2023-10-23T04:36:42.215Z,22.69
2023-10-23T04:37:44.993Z,23.56
2023-10-23T04:38:48.175Z,23.87
2023-10-23T04:39:51.038Z,24.50
2023-10-23T04:40:58.388Z,25.50
2023-10-23T04:42:06.062Z,21.06
2023-10-23T04:43:08.896Z,24.00
2023-10-23T04:44:11.708Z,21.62
2023-10-23T04:45:14.640Z,22.25
2023-10-23T04:46:17.579Z,23.56
2023-10-23T04:47:20.575Z,23.69
2023-10-23T04:48:23.490Z,18.31
2023-10-23T04:49:26.534Z,14.81
2023-10-23T04:50:30.916Z,15.50
2023-10-23T04:51:34.042Z,15.75
2023-10-23T04:52:36.837Z,12.00
2023-10-23T04:53:39.658Z,10.88
2023-10-23T04:54:42.533Z,9.31
2023-10-23T04:55:45.440Z,8.69
2023-10-23T04:56:48.610Z,8.56
2023-10-23T04:57:51.433Z,9.06
2023-10-23T04:58:54.287Z,4.87
2023-10-23T04:59:57.080Z,8.50
2023-10-23T05:01:00.220Z,8.81
2023-10-23T05:02:03.706Z,10.63
2023-10-23T05:03:06.713Z,16.81
2023-10-23T05:04:09.840Z,11.00
2023-10-23T05:05:12.786Z,11.19
2023-10-23T05:06:15.924Z,10.31
2023-10-23T05:07:18.800Z,8.19
2023-10-23T05:08:21.593Z,9.44
2023-10-23T05:09:24.478Z,10.31
2023-10-23T05:10:27.488Z,9.00
2023-10-23T05:11:30.277Z,9.31
2023-10-23T05:12:33.252Z,6.94
2023-10-23T05:13:36.121Z,5.25
2023-10-23T05:14:38.926Z,6.00
2023-10-23T05:15:41.946Z,6.37
2023-10-23T05:16:44.967Z,5.44
2023-10-23T05:17:47.790Z,4.69
2023-10-23T05:18:50.797Z,6.37
2023-10-23T05:19:53.932Z,5.37
2023-10-23T05:20:56.891Z,5.44
2023-10-23T05:21:59.721Z,5.19
2023-10-23T05:23:02.565Z,5.62
2023-10-23T05:24:05.502Z,6.94
2023-10-23T05:25:08.686Z,4.81
2023-10-23T05:26:12.662Z,7.00
2023-10-23T05:27:15.806Z,4.62
2023-10-23T05:28:18.658Z,5.44
2023-10-23T05:29:21.448Z,5.12
2023-10-23T05:30:24.309Z,5.87
2023-10-23T05:31:27.198Z,6.19
2023-10-23T05:32:30.473Z,5.56
2023-10-23T05:33:33.282Z,5.00
2023-10-23T05:34:37.123Z,6.31
2023-10-23T05:35:40.068Z,6.00
2023-10-23T05:36:42.935Z,6.69
2023-10-23T05:37:45.894Z,7.81
2023-10-23T05:38:48.790Z,5.19
2023-10-23T05:39:51.854Z,5.00
2023-10-23T05:40:56.546Z,7.44
2023-10-23T05:41:59.457Z,4.00
2023-10-23T05:43:02.317Z,7.12
2023-10-23T05:44:05.325Z,5.56
2023-10-23T05:45:08.534Z,7.44
2023-10-23T05:46:12.868Z,3.69
2023-10-23T05:47:15.752Z,6.06
2023-10-23T05:48:18.625Z,5.12
2023-10-23T05:49:21.513Z,4.56
2023-10-23T05:50:24.403Z,6.37
2023-10-23T05:51:27.195Z,2.69
2023-10-23T05:52:30.079Z,5.31
2023-10-23T05:53:33.152Z,10.19
2023-10-23T05:54:35.957Z,8.19
2023-10-23T05:55:38.768Z,7.75
2023-10-23T05:56:41.639Z,6.25
2023-10-23T05:57:44.459Z,4.62
2023-10-23T05:58:47.289Z,4.94
2023-10-23T05:59:50.057Z,6.19
2023-10-23T06:00:53.254Z,4.75
2023-10-23T06:01:56.143Z,5.94
2023-10-23T06:02:59.023Z,8.00
2023-10-23T06:04:02.013Z,9.31
2023-10-23T06:05:05.088Z,7.62
2023-10-23T06:06:08.085Z,7.31
2023-10-23T06:07:11.012Z,6.81
2023-10-23T06:08:16.183Z,4.06
2023-10-23T06:09:18.676Z,6.50
2023-10-23T06:10:21.548Z,4.37
2023-10-23T06:11:24.507Z,5.25
2023-10-23T06:12:27.383Z,5.00
2023-10-23T06:13:30.162Z,4.81
2023-10-23T06:14:33.053Z,5.25
2023-10-23T06:15:36.166Z,4.12
2023-10-23T06:16:39.050Z,4.94
2023-10-23T06:17:41.961Z,3.69
2023-10-23T06:18:44.849Z,4.50
2023-10-23T06:19:47.703Z,4.25
2023-10-23T06:20:52.112Z,5.25
2023-10-23T06:21:55.170Z,4.25
2023-10-23T06:22:58.134Z,4.56
2023-10-23T06:24:00.985Z,4.25
2023-10-23T06:25:03.946Z,3.56
2023-10-23T06:26:07.916Z,3.44
2023-10-23T06:27:10.778Z,4.44
2023-10-23T06:28:13.584Z,3.94
2023-10-23T06:29:16.366Z,3.87
2023-10-23T06:30:19.221Z,5.37
2023-10-23T06:31:22.047Z,4.56
2023-10-23T06:32:24.848Z,3.87
2023-10-23T06:33:27.731Z,4.56
2023-10-23T06:34:30.567Z,4.50
2023-10-23T06:35:33.369Z,3.19
2023-10-23T06:36:36.518Z,4.81
2023-10-23T06:37:39.300Z,5.62
2023-10-23T06:38:42.178Z,11.31
2023-10-23T06:39:45.077Z,7.12
2023-10-23T06:40:47.940Z,4.75
2023-10-23T06:41:50.758Z,3.44
2023-10-23T06:42:53.597Z,13.44
2023-10-23T06:43:56.410Z,4.69
2023-10-23T06:44:59.211Z,4.50
2023-10-23T06:46:02.952Z,3.62
2023-10-23T06:47:06.162Z,3.75
2023-10-23T06:48:09.077Z,8.31
2023-10-23T06:49:12.036Z,4.44
2023-10-23T06:50:16.383Z,5.56
2023-10-23T06:51:19.188Z,3.37
2023-10-23T06:52:22.061Z,2.50
2023-10-23T06:53:24.868Z,3.44
2023-10-23T06:54:27.674Z,5.37
2023-10-23T06:55:30.723Z,4.81
2023-10-23T06:56:33.682Z,4.31
2023-10-23T06:57:36.499Z,3.69
2023-10-23T06:58:39.290Z,4.62
2023-10-23T06:59:42.268Z,3.81
2023-10-23T07:00:45.350Z,4.69
2023-10-23T07:01:48.220Z,3.62
2023-10-23T07:02:51.377Z,3.31
2023-10-23T07:03:54.359Z,4.06
2023-10-23T07:04:57.174Z,3.25
2023-10-23T07:06:00.027Z,3.56
2023-10-23T07:07:08.273Z,4.31
2023-10-23T07:08:07.794Z,2.44
2023-10-23T07:09:10.657Z,42.81
2023-10-23T07:10:13.557Z,5.12
2023-10-23T07:11:16.834Z,4.81
2023-10-23T07:12:19.644Z,4.00
2023-10-23T07:13:23.411Z,7.87
2023-10-23T07:14:26.334Z,3.75
2023-10-23T07:15:29.566Z,3.62
2023-10-23T07:16:32.650Z,6.44
2023-10-23T07:17:35.611Z,2.69
2023-10-23T07:18:38.532Z,2.81
2023-10-23T07:19:41.435Z,3.62
2023-10-23T07:20:54.749Z,3.75
2023-10-23T07:21:57.636Z,3.94
2023-10-23T07:23:00.415Z,2.12
2023-10-23T07:24:03.327Z,3.37
2023-10-23T07:25:06.300Z,4.94
2023-10-23T07:26:10.862Z,4.69
2023-10-23T07:27:13.732Z,3.37
2023-10-23T07:28:16.629Z,2.12
2023-10-23T07:29:19.420Z,4.44
2023-10-23T07:30:22.353Z,1.00
2023-10-23T07:31:25.218Z,3.56
2023-10-23T07:32:28.131Z,2.62
2023-10-23T07:33:30.999Z,3.94
2023-10-23T07:34:33.819Z,4.44
2023-10-23T07:35:43.440Z,4.06
2023-10-23T07:36:41.190Z,5.69
2023-10-23T07:37:44.000Z,3.44
2023-10-23T07:38:46.887Z,5.75
2023-10-23T07:39:49.791Z,3.37
2023-10-23T07:40:52.717Z,4.81
2023-10-23T07:41:55.641Z,6.56
2023-10-23T07:42:58.438Z,4.75
2023-10-23T07:44:01.340Z,3.56
2023-10-23T07:45:04.342Z,6.12
2023-10-23T07:46:15.822Z,6.12
2023-10-23T07:47:13.266Z,5.87
2023-10-23T07:48:16.147Z,6.31
2023-10-23T07:49:19.028Z,6.31
2023-10-23T07:50:22.025Z,4.50
2023-10-23T07:51:24.883Z,5.87
2023-10-23T07:52:27.721Z,6.19
2023-10-23T07:53:30.879Z,7.25
2023-10-23T07:54:33.702Z,8.19
2023-10-23T07:55:36.662Z,5.56
2023-10-23T07:56:39.539Z,5.00
2023-10-23T07:57:42.328Z,5.44
2023-10-23T07:58:45.174Z,2.19
2023-10-23T07:59:48.045Z,4.87
2023-10-23T08:00:52.305Z,5.94
2023-10-23T08:01:55.234Z,7.06
2023-10-23T08:02:58.231Z,4.62
2023-10-23T08:04:01.445Z,7.44
2023-10-23T08:05:04.722Z,6.00
2023-10-23T08:06:09.305Z,4.87
2023-10-23T08:07:12.191Z,4.19
2023-10-23T08:08:15.022Z,6.19
2023-10-23T08:09:18.020Z,5.00
2023-10-23T08:10:20.921Z,5.12
2023-10-23T08:11:23.865Z,6.62
2023-10-23T08:12:26.741Z,56.19
2023-10-23T08:13:29.585Z,7.81
2023-10-23T08:14:32.396Z,5.44
2023-10-23T08:15:35.263Z,6.00
2023-10-23T08:16:38.290Z,8.19
2023-10-23T08:17:43.248Z,2.25
2023-10-23T08:18:46.416Z,5.31
2023-10-23T08:19:49.306Z,6.37
2023-10-23T08:20:52.499Z,5.00
2023-10-23T08:21:55.380Z,6.06
2023-10-23T08:22:58.230Z,4.69
2023-10-23T08:24:01.050Z,4.94
2023-10-23T08:25:04.045Z,5.50
2023-10-23T08:26:07.290Z,4.00
2023-10-23T08:27:10.197Z,4.00
2023-10-23T08:28:13.025Z,4.81
2023-10-23T08:29:16.987Z,4.12
2023-10-23T08:30:20.170Z,4.94
2023-10-23T08:31:36.755Z,4.25
2023-10-23T08:32:34.173Z,7.87
2023-10-23T08:33:31.938Z,3.87
2023-10-23T08:34:34.966Z,3.81
2023-10-23T08:35:37.887Z,3.87
2023-10-23T08:36:40.844Z,4.87
2023-10-23T08:37:43.732Z,5.94
2023-10-23T08:38:46.590Z,3.81
2023-10-23T08:39:49.388Z,4.19
2023-10-23T08:40:52.384Z,3.25
2023-10-23T08:41:55.333Z,5.37
2023-10-23T08:42:58.435Z,4.00
2023-10-23T08:44:01.452Z,3.81
2023-10-23T08:45:04.534Z,2.19
2023-10-23T08:46:07.472Z,3.06
2023-10-23T08:47:10.383Z,5.19
2023-10-23T08:48:13.323Z,2.00
2023-10-23T08:49:18.729Z,3.87
2023-10-23T08:50:20.723Z,6.81
2023-10-23T08:51:24.200Z,5.94
2023-10-23T08:52:27.068Z,4.62
2023-10-23T08:53:34.036Z,2.87
2023-10-23T08:54:37.392Z,7.56
2023-10-23T08:55:40.283Z,4.06
2023-10-23T08:56:43.547Z,3.75
2023-10-23T08:57:47.955Z,4.12
2023-10-23T08:58:52.343Z,5.00
2023-10-23T08:59:55.138Z,5.06
2023-10-23T09:00:58.074Z,3.87
2023-10-23T09:02:01.960Z,4.31
2023-10-23T09:03:06.402Z,3.87
2023-10-23T09:04:09.293Z,4.12
2023-10-23T09:05:12.210Z,4.75
2023-10-23T09:06:18.464Z,4.69
2023-10-23T09:07:21.438Z,4.44
2023-10-23T09:08:24.937Z,3.50
2023-10-23T09:09:27.833Z,4.75
2023-10-23T09:10:30.790Z,4.75
2023-10-23T09:11:43.269Z,3.81
2023-10-23T09:12:46.099Z,5.19
2023-10-23T09:13:48.950Z,5.56
2023-10-23T09:14:51.788Z,9.63
2023-10-23T09:15:54.681Z,4.94
2023-10-23T09:16:58.211Z,4.62
2023-10-23T09:18:01.208Z,2.62
2023-10-23T09:19:04.450Z,4.25
2023-10-23T09:20:21.519Z,5.94
2023-10-23T09:21:24.349Z,6.81
2023-10-23T09:22:29.166Z,3.25
2023-10-23T09:23:32.102Z,3.50
2023-10-23T09:24:35.023Z,2.62
2023-10-23T09:25:37.831Z,7.69
2023-10-23T09:26:40.903Z,4.19
2023-10-23T09:27:44.088Z,4.00
2023-10-23T09:28:47.520Z,4.12
2023-10-23T09:29:51.811Z,3.81
2023-10-23T09:30:55.406Z,4.94
2023-10-23T09:31:59.202Z,5.31
2023-10-23T09:33:02.271Z,4.75
2023-10-23T09:34:05.283Z,2.75
2023-10-23T09:35:08.615Z,8.44
2023-10-23T09:36:13.238Z,3.62
2023-10-23T09:37:16.149Z,3.12
2023-10-23T09:38:18.978Z,5.06
2023-10-23T09:39:22.268Z,5.19
2023-10-23T09:40:25.649Z,4.94
2023-10-23T09:41:29.246Z,4.44
2023-10-23T09:42:32.818Z,4.62
2023-10-23T09:43:35.889Z,3.75
2023-10-23T09:44:39.322Z,3.06
2023-10-23T09:45:42.388Z,3.44
2023-10-23T09:46:46.776Z,5.00
2023-10-23T09:47:50.529Z,4.44
2023-10-23T09:48:57.760Z,4.44
2023-10-23T09:49:58.376Z,4.69
2023-10-23T09:51:02.319Z,4.12
2023-10-23T09:52:06.891Z,1.62
2023-10-23T09:53:10.010Z,1.50
2023-10-23T09:54:14.250Z,6.69
2023-10-23T09:55:18.614Z,3.94
2023-10-23T09:56:21.873Z,4.19
2023-10-23T09:57:26.272Z,3.00
2023-10-23T09:58:30.571Z,5.44
2023-10-23T09:59:38.018Z,4.56
2023-10-23T10:00:41.451Z,3.44
2023-10-23T10:01:45.989Z,5.06
2023-10-23T10:02:53.437Z,4.56
2023-10-23T10:03:57.882Z,3.69
2023-10-23T10:05:02.206Z,6.87
2023-10-23T10:06:06.847Z,4.37
2023-10-23T10:07:11.242Z,5.50
2023-10-23T10:08:17.881Z,4.00
2023-10-23T10:09:21.382Z,3.44
2023-10-23T10:10:25.887Z,6.00
2023-10-23T10:11:29.535Z,4.44
2023-10-23T10:12:32.835Z,7.37
2023-10-23T10:13:36.983Z,4.19
2023-10-23T10:14:41.292Z,23.31
2023-10-23T10:15:44.833Z,4.94
2023-10-23T10:16:47.915Z,2.81
2023-10-23T10:17:51.286Z,4.62
2023-10-23T10:18:54.777Z,2.37
2023-10-23T10:19:58.707Z,3.25
2023-10-23T10:21:03.342Z,5.19
2023-10-23T10:22:20.637Z,3.00
2023-10-23T10:23:24.049Z,5.31
2023-10-23T10:24:27.410Z,4.81
2023-10-23T10:25:30.603Z,5.87
2023-10-23T10:26:34.622Z,2.31
2023-10-23T10:27:37.418Z,5.37
2023-10-23T10:28:40.720Z,3.62
2023-10-23T10:29:43.565Z,4.50
2023-10-23T10:30:48.138Z,3.50
2023-10-23T10:32:01.739Z,4.62
2023-10-23T10:34:19.631Z,1.25
2023-10-23T10:34:28.145Z,4.31
2023-10-23T10:35:16.979Z,4.19
2023-10-23T10:36:45.765Z,2.69
2023-10-23T10:37:33.267Z,5.37
2023-10-23T10:38:32.515Z,4.06
2023-10-23T10:39:51.633Z,5.12
2023-10-23T10:40:58.946Z,6.31
2023-10-23T10:42:01.722Z,4.87
2023-10-23T10:43:06.072Z,3.69
2023-10-23T10:44:12.023Z,5.37
2023-10-23T10:45:15.227Z,5.75
2023-10-23T10:46:23.625Z,4.81
2023-10-23T10:47:39.976Z,6.69
2023-10-23T10:48:43.643Z,6.12
2023-10-23T10:49:47.989Z,3.50
2023-10-23T10:50:51.045Z,3.12
2023-10-23T10:51:54.042Z,4.31
2023-10-23T10:52:58.431Z,3.50
2023-10-23T10:54:03.609Z,6.44
2023-10-23T10:55:21.661Z,6.00
2023-10-23T10:56:17.185Z,4.12
2023-10-23T10:57:20.441Z,5.25
2023-10-23T10:58:23.842Z,4.25
2023-10-23T10:59:29.380Z,4.69
2023-10-23T11:00:33.238Z,4.44
2023-10-23T11:01:36.158Z,4.81
2023-10-23T11:02:39.443Z,7.31
2023-10-23T11:03:42.619Z,4.87
2023-10-23T11:04:45.613Z,3.94
2023-10-23T11:05:48.466Z,3.50
2023-10-23T11:07:00.654Z,4.25
2023-10-23T11:08:03.598Z,3.56
2023-10-23T11:09:06.549Z,6.19
2023-10-23T11:10:09.568Z,4.00
2023-10-23T11:11:12.586Z,6.37
2023-10-23T11:12:15.406Z,5.00
2023-10-23T11:13:18.336Z,5.44
2023-10-23T11:14:21.448Z,4.56
2023-10-23T11:15:24.311Z,3.50
2023-10-23T11:16:27.417Z,4.75
2023-10-23T11:17:30.334Z,2.87
2023-10-23T11:18:33.508Z,5.75
2023-10-23T11:19:36.342Z,6.81
2023-10-23T11:20:42.346Z,4.81
2023-10-23T11:21:44.454Z,7.69
2023-10-23T11:22:47.499Z,5.06
2023-10-23T11:23:50.440Z,15.06
2023-10-23T11:24:53.248Z,5.19
2023-10-23T11:25:56.143Z,5.69
2023-10-23T11:26:59.320Z,6.19
2023-10-23T11:28:03.737Z,5.50
2023-10-23T11:29:06.577Z,5.00
2023-10-23T11:30:09.493Z,7.31
2023-10-23T11:31:12.417Z,6.75
2023-10-23T11:32:16.169Z,13.00
2023-10-23T11:33:20.487Z,4.75
2023-10-23T11:34:23.753Z,5.00
2023-10-23T11:35:28.039Z,4.56
2023-10-23T11:36:32.465Z,6.62
2023-10-23T11:37:39.595Z,5.06
2023-10-23T11:38:42.394Z,7.31
2023-10-23T11:39:45.294Z,7.00
2023-10-23T11:40:48.354Z,4.19
2023-10-23T11:41:54.946Z,4.81
2023-10-23T11:42:57.738Z,5.37
2023-10-23T11:44:01.085Z,7.12
2023-10-23T11:45:04.072Z,3.94
2023-10-23T11:46:07.250Z,4.31
2023-10-23T11:47:10.522Z,3.50
2023-10-23T11:48:13.364Z,4.31
2023-10-23T11:49:22.411Z,6.44
2023-10-23T11:50:25.914Z,5.75
2023-10-23T11:51:28.817Z,4.12
2023-10-23T11:52:31.813Z,4.81
2023-10-23T11:53:35.412Z,5.19
2023-10-23T11:54:38.326Z,5.31
2023-10-23T11:55:41.130Z,3.81
2023-10-23T11:56:44.190Z,3.94
2023-10-23T11:57:48.114Z,3.81
2023-10-23T11:58:50.969Z,5.00
2023-10-23T11:59:53.795Z,2.94
2023-10-23T12:00:56.703Z,3.37
2023-10-23T12:01:59.596Z,0.00
2023-10-23T12:03:02.599Z,6.00
2023-10-23T12:04:05.808Z,8.75
2023-10-23T12:05:09.712Z,5.62
2023-10-23T12:06:12.883Z,6.69
2023-10-23T12:07:15.855Z,4.87
2023-10-23T12:08:18.838Z,2.62
2023-10-23T12:09:21.910Z,2.12
2023-10-23T12:10:26.276Z,5.44
2023-10-23T12:11:29.807Z,3.44
2023-10-23T12:12:32.597Z,6.25
2023-10-23T12:13:35.433Z,4.56
2023-10-23T12:14:39.888Z,4.62
2023-10-23T12:15:42.729Z,4.50
2023-10-23T12:16:45.735Z,4.06
2023-10-23T12:17:48.691Z,4.12
2023-10-23T12:18:51.548Z,4.81
2023-10-23T12:19:54.357Z,4.94
2023-10-23T12:20:59.492Z,5.75
2023-10-23T12:22:01.629Z,4.69
2023-10-23T12:23:04.454Z,6.75
2023-10-23T12:24:07.557Z,4.37
2023-10-23T12:25:10.788Z,5.19
2023-10-23T12:26:14.135Z,5.12
2023-10-23T12:27:16.997Z,5.00
2023-10-23T12:28:19.889Z,4.19
2023-10-23T12:29:22.722Z,4.87
2023-10-23T12:30:27.547Z,5.50
2023-10-23T12:31:30.293Z,7.75
2023-10-23T12:33:14.755Z,7.44
2023-10-23T12:33:38.786Z,9.00
2023-10-23T12:34:41.879Z,14.31
2023-10-23T12:35:44.949Z,12.00
2023-10-23T12:36:48.132Z,5.44
2023-10-23T12:37:50.939Z,7.69
2023-10-23T12:38:53.774Z,9.19
2023-10-23T12:39:57.336Z,7.50
2023-10-23T12:41:00.272Z,6.69
2023-10-23T12:42:03.261Z,5.56
2023-10-23T12:43:06.181Z,7.62
2023-10-23T12:44:09.071Z,6.62
2023-10-23T12:45:11.913Z,9.25
2023-10-23T12:46:14.907Z,7.87
2023-10-23T12:47:18.512Z,5.94
2023-10-23T12:48:21.495Z,5.94
2023-10-23T12:49:24.448Z,6.37
2023-10-23T12:50:27.414Z,5.87
2023-10-23T12:51:30.232Z,5.31
2023-10-23T12:52:33.686Z,7.25
2023-10-23T12:53:36.479Z,6.25
2023-10-23T12:54:39.568Z,8.63
2023-10-23T12:55:42.363Z,10.31
2023-10-23T12:56:45.316Z,11.38
2023-10-23T12:57:48.124Z,9.31
2023-10-23T12:58:51.018Z,5.44
2023-10-23T12:59:53.844Z,5.50
2023-10-23T13:00:56.824Z,3.25
2023-10-23T13:01:59.936Z,4.50
2023-10-23T13:03:02.763Z,4.44
2023-10-23T13:04:05.881Z,7.06
2023-10-23T13:05:08.897Z,8.13
2023-10-23T13:06:12.158Z,5.19
2023-10-23T13:07:14.992Z,6.12
2023-10-23T13:08:17.886Z,3.06
2023-10-23T13:09:21.176Z,4.37
2023-10-23T13:10:24.137Z,5.56
2023-10-23T13:11:27.166Z,4.62
2023-10-23T13:12:30.042Z,2.19
2023-10-23T13:13:32.856Z,5.25
2023-10-23T13:14:35.888Z,5.25
2023-10-23T13:15:38.652Z,3.75
2023-10-23T13:16:41.767Z,7.62
2023-10-23T13:17:44.618Z,6.19
2023-10-23T13:18:53.415Z,4.69
2023-10-23T13:19:51.820Z,3.56
2023-10-23T13:21:33.059Z,5.12
2023-10-23T13:21:59.232Z,5.94
2023-10-23T13:23:02.102Z,5.56
2023-10-23T13:24:05.065Z,18.81
2023-10-23T13:25:09.602Z,6.31
2023-10-23T13:26:14.333Z,6.94
2023-10-23T13:27:17.171Z,7.87
2023-10-23T13:28:20.055Z,9.19
2023-10-23T13:29:23.082Z,6.94
2023-10-23T13:30:26.002Z,6.75
2023-10-23T13:31:29.119Z,6.25
2023-10-23T13:32:32.180Z,6.69
2023-10-23T13:33:34.975Z,6.31
2023-10-23T13:34:37.998Z,11.31
2023-10-23T13:35:41.464Z,6.31
2023-10-23T13:36:44.889Z,6.25
2023-10-23T13:37:47.690Z,4.06
2023-10-23T13:38:50.568Z,4.00
2023-10-23T13:39:53.458Z,5.44
2023-10-23T13:40:56.546Z,4.44
2023-10-23T13:41:59.341Z,5.31
2023-10-23T13:43:02.190Z,8.38
2023-10-23T13:44:05.106Z,6.75
2023-10-23T13:45:08.344Z,4.94
2023-10-23T13:46:11.348Z,5.81
2023-10-23T13:47:14.236Z,5.94
2023-10-23T13:48:17.161Z,6.19
2023-10-23T13:49:20.036Z,5.75
2023-10-23T13:50:22.933Z,4.94
2023-10-23T13:51:25.876Z,5.50
2023-10-23T13:52:28.784Z,3.75
2023-10-23T13:53:31.641Z,6.62
2023-10-23T13:54:34.462Z,5.06
2023-10-23T13:55:37.756Z,6.75